Time;durP1;ratioP1;P1;durP2;ratioP2;P2;SDS_P1;SDS_P2;PMS_P1;PMS_P2;Temp;Humidity;BMP_temperature;BMP_pressure;BME280_temperature;BME280_humidity;BME280_pressure;Samples;Min_cycle;Max_cycle;Signal;HPM_P1;HPM_P2
2022/12/31 00:00:09;;;;;;;7.90;4.85;;;12.00;99.90;;;;;;4897034;29;21823;-77
2022/12/31 00:02:35;;;;;;;8.50;5.13;;;12.00;99.90;;;;;;4915425;29;20118;-77
2022/12/31 00:05:01;;;;;;;7.88;6.22;;;11.90;99.90;;;;;;4931439;28;20040;-78
2022/12/31 00:07:27;;;;;;;8.07;6.95;;;11.90;99.90;;;;;;4931003;28;20043;-78
2022/12/31 00:09:53;;;;;;;11.95;7.65;;;11.90;99.90;;;;;;4919271;29;20043;-77
2022/12/31 00:12:19;;;;;;;11.25;9.15;;;11.90;99.90;;;;;;4914904;28;20506;-77
2022/12/31 00:14:44;;;;;;;10.77;9.68;;;11.90;99.90;;;;;;4917550;28;20106;-82
2022/12/31 00:17:10;;;;;;;11.85;10.65;;;11.90;99.90;;;;;;4902224;29;20110;-81
2022/12/31 00:19:36;;;;;;;11.85;10.65;;;11.90;99.90;;;;;;4917963;28;20529;-81
2022/12/31 00:22:02;;;;;;;12.00;10.80;;;11.90;99.90;;;;;;4900689;28;20452;-81
2022/12/31 00:24:29;;;;;;;10.98;9.88;;;11.90;99.90;;;;;;4913741;28;20039;-82
2022/12/31 00:26:55;;;;;;;11.95;9.80;;;11.80;99.90;;;;;;4901678;28;20363;-77
2022/12/31 00:29:21;;;;;;;10.45;9.15;;;11.90;99.90;;;;;;4932138;28;20158;-79
2022/12/31 00:31:47;;;;;;;10.50;8.43;;;11.90;99.90;;;;;;4899888;29;20152;-78
2022/12/31 00:34:13;;;;;;;11.88;9.40;;;11.90;99.90;;;;;;4902375;29;20105;-78
2022/12/31 00:36:41;;;;;;;11.35;9.55;;;11.90;99.90;;;;;;4901302;28;20046;-78
2022/12/31 00:39:09;;;;;;;11.48;9.43;;;11.90;99.90;;;;;;4924745;29;20055;-77
2022/12/31 00:41:35;;;;;;;11.05;9.93;;;11.90;99.90;;;;;;4917569;28;20545;-77
2022/12/31 00:44:01;;;;;;;12.05;9.68;;;11.90;99.90;;;;;;4917565;28;20043;-82
2022/12/31 00:46:27;;;;;;;13.05;10.98;;;11.90;99.90;;;;;;4932978;28;20039;-78
2022/12/31 00:48:56;;;;;;;13.63;11.43;;;11.90;99.90;;;;;;4901396;29;20102;-78
2022/12/31 00:51:26;;;;;;;15.98;11.27;;;11.80;99.90;;;;;;4915929;29;20114;-77
2022/12/31 00:53:52;;;;;;;15.23;11.65;;;11.90;99.90;;;;;;4902683;28;20901;-77
2022/12/31 00:56:24;;;;;;;13.02;10.75;;;11.90;99.90;;;;;;4887490;29;21275;-76
2022/12/31 00:58:50;;;;;;;14.77;10.55;;;11.90;99.90;;;;;;4946946;28;20085;-78
2022/12/31 01:01:28;;;;;;;13.98;11.35;;;11.80;99.90;;;;;;4892961;28;20039;-77
2022/12/31 01:04:02;;;;;;;13.85;10.68;;;11.90;99.90;;;;;;4916641;28;20059;-77
2022/12/31 01:06:28;;;;;;;13.05;10.68;;;11.90;99.90;;;;;;4932883;28;20043;-78
2022/12/31 01:08:54;;;;;;;13.30;10.80;;;11.90;99.90;;;;;;4917381;28;20049;-77
2022/12/31 01:11:27;;;;;;;13.45;10.60;;;11.90;99.90;;;;;;4909101;29;20505;-78
2022/12/31 01:14:13;;;;;;;14.20;11.13;;;11.90;99.90;;;;;;4917087;28;20086;-78
2022/12/31 01:16:40;;;;;;;14.35;11.18;;;11.90;99.90;;;;;;4919133;29;20092;-78
2022/12/31 01:19:09;;;;;;;12.27;10.07;;;11.90;99.90;;;;;;4901274;28;20070;-77
2022/12/31 01:21:40;;;;;;;14.80;10.73;;;11.90;99.90;;;;;;4916053;29;20474;-78
2022/12/31 01:24:06;;;;;;;13.90;10.55;;;11.90;99.90;;;;;;4916976;28;20055;-78
2022/12/31 01:26:33;;;;;;;12.82;10.27;;;11.90;99.90;;;;;;4932085;28;20043;-78
2022/12/31 01:28:58;;;;;;;14.02;10.95;;;11.90;99.90;;;;;;4914826;28;20058;-78
2022/12/31 01:31:24;;;;;;;14.35;10.25;;;11.90;99.90;;;;;;4915156;28;20047;-77
2022/12/31 01:33:56;;;;;;;14.27;9.88;;;11.90;99.90;;;;;;4917480;28;20051;-77
2022/12/31 01:36:25;;;;;;;13.75;10.82;;;11.90;99.90;;;;;;4929626;28;20082;-79
2022/12/31 01:38:51;;;;;;;11.98;10.38;;;11.90;99.90;;;;;;4928545;28;20043;-78
2022/12/31 01:41:24;;;;;;;12.63;9.63;;;11.90;99.90;;;;;;4901009;28;20110;-78
2022/12/31 01:44:00;;;;;;;11.88;9.48;;;11.90;99.90;;;;;;4898407;28;20059;-77
2022/12/31 01:46:33;;;;;;;12.38;9.27;;;11.90;99.90;;;;;;4929849;28;20775;-78
2022/12/31 01:49:30;;;;;;;12.35;9.30;;;11.90;99.90;;;;;;4913172;29;20082;-82
2022/12/31 01:52:48;;;;;;;11.65;9.18;;;11.80;99.90;;;;;;4889217;28;20153;-82
2022/12/31 01:55:56;;;;;;;10.82;8.32;;;11.90;99.90;;;;;;4907426;28;20066;-82
2022/12/31 01:58:30;;;;;;;9.88;7.85;;;11.80;99.90;;;;;;4878495;29;20074;-82
2022/12/31 02:00:57;;;;;;;9.68;8.05;;;11.80;99.90;;;;;;4898942;28;20081;-83
2022/12/31 02:03:26;;;;;;;11.32;7.93;;;11.80;99.90;;;;;;4898556;28;20406;-83
2022/12/31 02:06:13;;;;;;;10.05;7.65;;;11.80;99.90;;;;;;4912290;28;20093;-83
2022/12/31 02:08:42;;;;;;;9.02;7.13;;;11.80;99.90;;;;;;4899710;29;20138;-83
2022/12/31 02:11:41;;;;;;;9.80;7.38;;;11.80;99.90;;;;;;4930229;28;20129;-83
2022/12/31 02:14:14;;;;;;;11.55;7.18;;;11.80;99.90;;;;;;4937166;28;20058;-83
2022/12/31 02:16:49;;;;;;;10.93;7.63;;;11.80;99.90;;;;;;4945459;28;20043;-83
2022/12/31 02:19:33;;;;;;;11.23;8.45;;;11.70;99.90;;;;;;4897828;29;20043;-83
2022/12/31 02:22:18;;;;;;;10.60;7.70;;;11.80;99.90;;;;;;4927930;28;20043;-84
2022/12/31 02:25:11;;;;;;;14.32;8.55;;;11.70;99.90;;;;;;4912401;28;20048;-82
2022/12/31 02:28:11;;;;;;;11.80;7.65;;;11.70;99.90;;;;;;4908063;28;20055;-76
2022/12/31 02:30:39;;;;;;;13.60;6.55;;;11.70;99.90;;;;;;4931063;28;20126;-76
2022/12/31 02:33:33;;;;;;;8.85;6.65;;;11.70;99.90;;;;;;4930841;28;20110;-76
2022/12/31 02:36:09;;;;;;;8.02;5.60;;;11.70;99.90;;;;;;4912632;29;20138;-76
2022/12/31 02:38:40;;;;;;;10.90;6.75;;;11.60;99.90;;;;;;4913330;28;20081;-76
2022/12/31 02:41:48;;;;;;;7.78;5.55;;;11.60;99.90;;;;;;4930047;28;20105;-76
2022/12/31 02:44:00;;;;;;;9.75;5.53;;;11.60;99.90;;;;;;4913316;29;20067;-77
2022/12/31 02:46:43;;;;;;;6.93;5.30;;;11.60;99.90;;;;;;4932343;28;20044;-76
2022/12/31 02:49:20;;;;;;;9.10;4.88;;;11.60;99.90;;;;;;4914676;29;20158;-76
2022/12/31 02:51:55;;;;;;;6.97;4.00;;;11.60;99.90;;;;;;4932169;28;20054;-76
2022/12/31 02:54:40;;;;;;;8.45;4.18;;;11.50;99.90;;;;;;4949397;28;20165;-76
2022/12/31 02:57:33;;;;;;;7.30;2.95;;;11.50;99.90;;;;;;4932614;28;20445;-76
2022/12/31 03:03:10;;;;;;;5.85;1.88;;;11.40;99.90;;;;;;4924119;29;20055;-75
2022/12/31 03:05:47;;;;;;;7.47;1.83;;;11.40;99.90;;;;;;4933334;28;20047;-76
2022/12/31 03:08:20;;;;;;;5.43;1.45;;;11.40;99.90;;;;;;4918819;28;20054;-76
2022/12/31 03:10:47;;;;;;;4.43;1.30;;;11.40;99.90;;;;;;4917970;28;21153;-76
2022/12/31 03:13:12;;;;;;;4.63;1.52;;;11.30;99.90;;;;;;4918271;29;20465;-75
2022/12/31 03:15:38;;;;;;;4.47;1.40;;;11.30;99.90;;;;;;4916490;28;20075;-76
2022/12/31 03:18:07;;;;;;;4.28;1.00;;;11.30;99.90;;;;;;4932360;28;20141;-75
2022/12/31 03:23:22;;;;;;;3.50;1.23;;;11.20;99.90;;;;;;4917024;29;20066;-76
2022/12/31 03:25:48;;;;;;;5.25;1.50;;;11.20;99.90;;;;;;4901554;28;20181;-75
2022/12/31 03:28:17;;;;;;;4.50;1.20;;;11.20;99.90;;;;;;4931233;28;20043;-76
2022/12/31 03:30:46;;;;;;;4.45;1.30;;;11.20;99.90;;;;;;4913665;29;20414;-76
2022/12/31 03:33:12;;;;;;;5.15;1.77;;;11.10;99.90;;;;;;4928539;28;20422;-76
2022/12/31 03:35:44;;;;;;;6.10;1.70;;;11.10;99.90;;;;;;4915096;29;20115;-76
2022/12/31 03:38:10;;;;;;;7.18;1.73;;;11.10;99.90;;;;;;4915884;29;20051;-76
2022/12/31 03:40:42;;;;;;;5.50;1.92;;;11.10;99.90;;;;;;4916604;29;20094;-76
2022/12/31 03:43:11;;;;;;;4.38;1.35;;;11.10;99.90;;;;;;4944088;28;20052;-76
2022/12/31 03:45:37;;;;;;;6.17;1.83;;;11.00;99.90;;;;;;4914940;29;20059;-76
2022/12/31 03:48:06;;;;;;;3.08;1.30;;;11.00;99.90;;;;;;4914336;29;20136;-76
2022/12/31 03:50:32;;;;;;;4.25;1.65;;;10.90;99.90;;;;;;4946127;28;20055;-76
2022/12/31 03:52:58;;;;;;;4.40;2.45;;;11.00;99.90;;;;;;4913410;29;20106;-76
2022/12/31 03:55:24;;;;;;;6.30;2.47;;;11.00;99.90;;;;;;4916565;29;20055;-76
2022/12/31 03:57:50;;;;;;;7.28;2.70;;;11.00;99.90;;;;;;4914437;29;20040;-76
2022/12/31 04:00:18;;;;;;;9.00;4.03;;;11.10;99.90;;;;;;4915142;29;20062;-76
2022/12/31 04:02:45;;;;;;;7.60;4.22;;;11.00;99.90;;;;;;4930005;28;20048;-76
2022/12/31 04:05:11;;;;;;;9.30;4.82;;;11.10;99.90;;;;;;4898648;29;20134;-76
2022/12/31 04:07:38;;;;;;;8.02;4.57;;;11.10;99.90;;;;;;4945192;28;20134;-75
2022/12/31 04:10:06;;;;;;;8.48;5.22;;;11.10;99.90;;;;;;4944968;28;20071;-75
2022/12/31 04:12:32;;;;;;;8.45;4.72;;;11.10;99.90;;;;;;4912616;29;20086;-76
2022/12/31 04:14:58;;;;;;;8.15;5.47;;;11.10;99.90;;;;;;4930141;28;20047;-75
2022/12/31 04:17:24;;;;;;;9.60;6.15;;;11.20;99.90;;;;;;4913211;29;20039;-76
2022/12/31 04:19:50;;;;;;;10.52;6.22;;;11.20;99.90;;;;;;4912695;29;20109;-76
2022/12/31 04:22:16;;;;;;;11.52;6.45;;;11.20;99.90;;;;;;4899128;29;20572;-76
2022/12/31 04:24:42;;;;;;;9.30;6.20;;;11.20;99.90;;;;;;4913286;29;20043;-75
2022/12/31 04:27:09;;;;;;;9.38;6.05;;;11.20;99.90;;;;;;4914230;29;20055;-76
2022/12/31 04:29:35;;;;;;;11.10;6.55;;;11.20;99.90;;;;;;4911809;29;20059;-76
2022/12/31 04:32:02;;;;;;;10.13;5.82;;;11.20;99.90;;;;;;4896714;29;20865;-76
2022/12/31 04:34:28;;;;;;;10.45;5.93;;;11.20;99.90;;;;;;4895765;29;20107;-75
2022/12/31 04:36:54;;;;;;;10.02;5.75;;;11.20;99.90;;;;;;4896662;29;20127;-75
2022/12/31 04:39:20;;;;;;;8.32;5.30;;;11.20;99.90;;;;;;4913193;29;20059;-75
2022/12/31 04:41:46;;;;;;;9.68;5.32;;;11.20;99.90;;;;;;4912848;29;20044;-75
2022/12/31 04:44:12;;;;;;;8.10;5.03;;;11.30;99.90;;;;;;4896493;29;20098;-75
2022/12/31 04:46:38;;;;;;;8.50;4.90;;;11.30;99.90;;;;;;4913254;29;20406;-75
2022/12/31 04:49:04;;;;;;;9.00;4.40;;;11.30;99.90;;;;;;4926913;28;20047;-75
2022/12/31 04:51:30;;;;;;;9.65;5.00;;;11.20;99.90;;;;;;4897752;29;20135;-75
2022/12/31 04:53:57;;;;;;;7.13;4.70;;;11.20;99.90;;;;;;4912820;29;20083;-75
2022/12/31 04:56:23;;;;;;;7.72;4.60;;;11.20;99.90;;;;;;4911143;29;20130;-75
2022/12/31 04:58:49;;;;;;;9.77;4.45;;;11.20;99.90;;;;;;4913825;29;20054;-75
2022/12/31 05:01:19;;;;;;;7.75;3.85;;;11.20;99.90;;;;;;4910573;29;20040;-76
2022/12/31 05:03:45;;;;;;;9.48;4.63;;;11.20;99.90;;;;;;4908241;29;20143;-76
2022/12/31 05:06:14;;;;;;;8.02;3.80;;;11.20;99.90;;;;;;4910961;29;20055;-76
2022/12/31 05:08:39;;;;;;;6.13;3.38;;;11.20;99.90;;;;;;4913203;29;20409;-76
2022/12/31 05:11:05;;;;;;;8.65;3.80;;;11.20;99.90;;;;;;4926061;29;20187;-75
2022/12/31 05:13:35;;;;;;;7.75;3.88;;;11.20;99.90;;;;;;4913553;29;20050;-75
2022/12/31 05:16:02;;;;;;;8.82;3.63;;;11.20;99.90;;;;;;4896613;29;20158;-75
2022/12/31 05:18:28;;;;;;;9.88;5.13;;;11.20;99.90;;;;;;4924738;28;20043;-76
2022/12/31 05:20:54;;;;;;;9.48;4.65;;;11.20;99.90;;;;;;4896720;29;20627;-76
2022/12/31 05:23:20;;;;;;;10.27;6.10;;;11.20;99.90;;;;;;4910127;29;20074;-76
2022/12/31 05:25:46;;;;;;;8.38;5.20;;;11.20;99.90;;;;;;4895943;29;20048;-76
2022/12/31 05:28:12;;;;;;;8.95;6.00;;;11.20;99.90;;;;;;4925191;28;20043;-76
2022/12/31 05:30:38;;;;;;;9.95;7.10;;;11.20;99.90;;;;;;4912178;29;20118;-74
2022/12/31 05:33:04;;;;;;;8.65;6.80;;;11.10;99.90;;;;;;4892306;29;20060;-75
2022/12/31 05:35:30;;;;;;;8.40;6.22;;;11.20;99.90;;;;;;4942225;28;20390;-75
2022/12/31 05:37:56;;;;;;;7.75;6.03;;;11.20;99.90;;;;;;4895240;29;20043;-75
2022/12/31 05:40:22;;;;;;;9.77;6.55;;;11.20;99.90;;;;;;4906252;29;21150;-74
2022/12/31 05:42:49;;;;;;;10.95;7.30;;;11.20;99.90;;;;;;4909748;29;20083;-75
2022/12/31 05:45:16;;;;;;;8.63;6.35;;;11.20;99.90;;;;;;4910560;29;20107;-76
2022/12/31 05:47:42;;;;;;;10.77;6.45;;;11.20;99.90;;;;;;4912960;29;20056;-75
2022/12/31 05:50:14;;;;;;;9.52;6.55;;;11.20;99.90;;;;;;4875693;29;20062;-74
2022/12/31 05:52:41;;;;;;;10.48;6.93;;;11.20;99.90;;;;;;4942257;28;20048;-76
2022/12/31 05:55:10;;;;;;;7.47;6.15;;;11.20;99.90;;;;;;4912096;29;20048;-76
2022/12/31 05:57:36;;;;;;;8.40;6.80;;;11.20;99.90;;;;;;4911937;29;20075;-76
2022/12/31 06:00:07;;;;;;;9.88;6.47;;;11.20;99.90;;;;;;4909616;29;20304;-76
2022/12/31 06:02:33;;;;;;;7.90;6.15;;;11.30;99.90;;;;;;4893829;29;20530;-75
2022/12/31 06:04:59;;;;;;;9.15;6.65;;;11.30;99.90;;;;;;4911306;29;20056;-75
2022/12/31 06:07:25;;;;;;;6.28;5.63;;;11.30;99.90;;;;;;4911965;29;20043;-75
2022/12/31 06:09:54;;;;;;;6.82;5.28;;;11.30;99.90;;;;;;4894182;29;20042;-75
2022/12/31 06:12:20;;;;;;;8.43;5.40;;;11.30;99.90;;;;;;4867066;29;20138;-75
2022/12/31 06:14:45;;;;;;;8.68;5.18;;;11.30;99.90;;;;;;4910343;29;20126;-76
2022/12/31 06:17:11;;;;;;;7.57;5.53;;;11.30;99.90;;;;;;4926053;28;20059;-75
2022/12/31 06:19:40;;;;;;;8.35;4.80;;;11.30;99.90;;;;;;4910621;29;20059;-75
2022/12/31 06:22:06;;;;;;;7.32;4.40;;;11.20;99.90;;;;;;4895191;29;20439;-75
2022/12/31 06:24:31;;;;;;;8.20;4.60;;;11.30;99.90;;;;;;4910100;29;20050;-76
2022/12/31 06:26:57;;;;;;;6.18;3.97;;;11.20;99.90;;;;;;4943286;28;20075;-75
2022/12/31 06:29:23;;;;;;;8.55;5.00;;;11.20;99.90;;;;;;4928918;28;20053;-75
2022/12/31 06:31:49;;;;;;;7.47;5.65;;;11.20;99.90;;;;;;4913517;29;20063;-74
2022/12/31 06:34:15;;;;;;;7.60;5.65;;;11.20;99.90;;;;;;4914853;28;20059;-75
2022/12/31 06:36:41;;;;;;;7.30;5.43;;;11.20;99.90;;;;;;4910450;28;20043;-75
2022/12/31 06:39:07;;;;;;;6.95;5.13;;;11.20;99.90;;;;;;4912614;28;20043;-75
2022/12/31 06:41:33;;;;;;;7.75;5.93;;;11.20;99.90;;;;;;4911985;29;20125;-75
2022/12/31 06:43:58;;;;;;;8.90;6.90;;;11.10;99.90;;;;;;4897764;28;20055;-74
2022/12/31 06:46:24;;;;;;;8.98;6.38;;;11.20;99.90;;;;;;4897303;29;20051;-75
2022/12/31 06:48:50;;;;;;;7.82;6.55;;;11.10;99.90;;;;;;4912932;28;20051;-75
2022/12/31 06:51:18;;;;;;;6.55;4.72;;;11.10;99.90;;;;;;4923399;28;20062;-75
2022/12/31 06:53:45;;;;;;;8.05;5.93;;;11.10;99.90;;;;;;4913795;28;20039;-74
2022/12/31 06:56:19;;;;;;;7.25;5.30;;;11.10;99.90;;;;;;4897318;29;20054;-74
2022/12/31 06:58:46;;;;;;;8.15;5.82;;;11.10;99.90;;;;;;4898742;28;20039;-74
2022/12/31 07:01:49;;;;;;;8.07;5.70;;;11.00;99.90;;;;;;4912187;28;20142;-74
2022/12/31 07:04:15;;;;;;;5.78;5.10;;;11.00;99.90;;;;;;4942186;28;20894;-75
2022/12/31 07:07:02;;;;;;;7.90;6.60;;;11.00;99.90;;;;;;4898298;29;20053;-74
2022/12/31 07:09:31;;;;;;;6.95;5.93;;;11.00;99.90;;;;;;4913535;29;20047;-75
2022/12/31 07:12:12;;;;;;;7.30;6.57;;;11.00;99.90;;;;;;4907399;28;20505;-75
2022/12/31 07:14:51;;;;;;;8.57;7.15;;;11.00;99.90;;;;;;4928807;28;21452;-74
2022/12/31 07:17:51;;;;;;;8.48;7.00;;;11.00;99.90;;;;;;4912820;29;20047;-74
2022/12/31 07:20:18;;;;;;;8.05;6.90;;;11.00;99.90;;;;;;4901444;29;20086;-75
2022/12/31 07:22:44;;;;;;;7.90;6.38;;;10.90;99.90;;;;;;4928565;28;20050;-75
2022/12/31 07:25:15;;;;;;;7.60;4.93;;;11.00;99.90;;;;;;4914523;29;20055;-74
2022/12/31 07:28:15;;;;;;;7.13;5.50;;;11.00;99.90;;;;;;4913542;28;20595;-75
2022/12/31 07:30:51;;;;;;;6.50;5.22;;;11.00;99.90;;;;;;4935944;28;20514;-74
2022/12/31 07:33:44;;;;;;;8.55;6.60;;;11.00;99.90;;;;;;4895770;28;20541;-75
2022/12/31 07:36:28;;;;;;;6.38;5.32;;;11.00;99.90;;;;;;4914724;29;20063;-74
2022/12/31 07:39:19;;;;;;;7.00;5.95;;;11.00;99.90;;;;;;4944794;28;20401;-75
2022/12/31 07:42:00;;;;;;;6.15;5.45;;;11.00;99.90;;;;;;4922009;29;20071;-75
2022/12/31 07:44:40;;;;;;;8.65;6.43;;;11.00;99.90;;;;;;4925561;28;20040;-75
2022/12/31 07:47:19;;;;;;;6.57;5.68;;;11.00;99.90;;;;;;4931878;28;20136;-75
2022/12/31 07:49:45;;;;;;;7.53;5.18;;;11.00;99.90;;;;;;4914170;28;20395;-75
2022/12/31 07:52:11;;;;;;;5.80;4.80;;;11.00;99.90;;;;;;4903071;29;20047;-75
2022/12/31 07:54:37;;;;;;;7.90;4.20;;;11.00;99.90;;;;;;4901600;28;20047;-75
2022/12/31 07:57:03;;;;;;;3.90;2.88;;;11.10;99.90;;;;;;4897309;28;20493;-75
2022/12/31 07:59:50;;;;;;;4.03;3.13;;;11.10;99.90;;;;;;4883180;28;20545;-75
2022/12/31 08:02:42;;;;;;;3.63;2.92;;;11.10;99.90;;;;;;4928607;28;20980;-75
2022/12/31 08:05:26;;;;;;;3.90;3.20;;;11.10;99.90;;;;;;4925213;28;20054;-76
2022/12/31 08:07:55;;;;;;;4.10;3.25;;;11.20;99.90;;;;;;4900750;29;20051;-75
2022/12/31 08:10:37;;;;;;;4.10;3.45;;;11.20;99.90;;;;;;4915135;28;20462;-75
2022/12/31 08:13:09;;;;;;;5.00;4.22;;;11.30;99.90;;;;;;4898706;28;20057;-75
2022/12/31 08:15:37;;;;;;;6.38;5.03;;;11.40;99.90;;;;;;4899287;29;20065;-75
2022/12/31 08:18:04;;;;;;;6.45;5.10;;;11.30;99.90;;;;;;4929478;28;20119;-75
2022/12/31 08:20:33;;;;;;;5.97;4.95;;;11.30;99.90;;;;;;4899418;29;20039;-75
2022/12/31 08:23:38;;;;;;;6.35;5.28;;;11.30;99.90;;;;;;4944877;28;20206;-75
2022/12/31 08:26:35;;;;;;;6.72;5.20;;;11.40;99.90;;;;;;4891689;28;20082;-74
2022/12/31 08:29:11;;;;;;;6.03;5.43;;;11.40;99.90;;;;;;4905608;29;20062;-75
2022/12/31 08:32:19;;;;;;;6.65;5.95;;;11.40;99.90;;;;;;4926309;28;20080;-75
2022/12/31 08:35:11;;;;;;;7.30;6.22;;;11.40;99.90;;;;;;4861530;29;20066;-79
2022/12/31 08:37:55;;;;;;;6.72;5.72;;;11.40;99.90;;;;;;4904480;29;20506;-78
2022/12/31 08:40:33;;;;;;;7.63;6.30;;;11.50;99.90;;;;;;4908131;29;20439;-79
2022/12/31 08:43:18;;;;;;;8.05;6.38;;;11.50;99.90;;;;;;4941919;28;20055;-75
2022/12/31 08:45:52;;;;;;;7.13;6.35;;;11.50;99.90;;;;;;4910166;29;20059;-75
2022/12/31 08:48:35;;;;;;;7.65;6.53;;;11.60;99.90;;;;;;4925460;28;20224;-75
2022/12/31 08:51:01;;;;;;;8.25;7.38;;;11.60;99.90;;;;;;4925433;28;20304;-75
2022/12/31 08:53:28;;;;;;;8.20;7.25;;;11.70;99.90;;;;;;4892872;29;20356;-74
2022/12/31 08:56:31;;;;;;;8.38;7.57;;;11.80;99.90;;;;;;4908873;29;20501;-74
2022/12/31 08:59:21;;;;;;;8.30;7.45;;;11.90;99.90;;;;;;4865154;29;20114;-75
2022/12/31 09:02:21;;;;;;;8.15;7.35;;;11.90;99.90;;;;;;4895927;29;20050;-75
2022/12/31 09:05:11;;;;;;;9.55;7.57;;;12.00;99.90;;;;;;4893669;29;20296;-75
2022/12/31 09:07:42;;;;;;;7.78;6.97;;;12.10;99.90;;;;;;4895132;29;20159;-74
2022/12/31 09:10:28;;;;;;;7.68;6.70;;;12.20;99.90;;;;;;4895843;29;21200;-74
2022/12/31 09:13:15;;;;;;;6.97;5.63;;;12.20;99.90;;;;;;4892063;29;20043;-76
2022/12/31 09:15:47;;;;;;;6.53;5.80;;;12.30;99.90;;;;;;4912563;29;20071;-76
2022/12/31 09:18:13;;;;;;;5.78;5.00;;;12.40;99.90;;;;;;4893959;29;20056;-76
2022/12/31 09:20:40;;;;;;;5.35;4.40;;;12.50;99.90;;;;;;4925929;28;20047;-76
2022/12/31 09:23:06;;;;;;;4.78;4.18;;;12.60;99.90;;;;;;4910719;29;20086;-76
2022/12/31 09:25:32;;;;;;;5.15;3.60;;;12.60;99.90;;;;;;4908221;29;20035;-77
2022/12/31 09:28:01;;;;;;;4.82;3.30;;;12.70;99.90;;;;;;4909051;29;20050;-76
2022/12/31 09:30:33;;;;;;;4.22;3.55;;;12.70;99.90;;;;;;4924078;28;20501;-75
2022/12/31 09:33:02;;;;;;;3.05;2.50;;;12.70;99.90;;;;;;4925524;28;20095;-76
2022/12/31 09:35:46;;;;;;;7.00;3.55;;;12.70;99.90;;;;;;4925509;28;20040;-76
2022/12/31 09:38:30;;;;;;;6.25;2.65;;;12.70;99.90;;;;;;4894360;29;20470;-78
2022/12/31 09:41:16;;;;;;;4.05;2.10;;;12.70;99.90;;;;;;4909609;29;20201;-75
2022/12/31 09:44:30;;;;;;;3.03;1.77;;;12.70;99.90;;;;;;4941894;28;20277;-79
2022/12/31 09:47:23;;;;;;;2.75;1.30;;;12.70;99.90;;;;;;4882099;29;20094;-78
2022/12/31 09:49:49;;;;;;;3.95;1.60;;;12.70;99.90;;;;;;4910506;29;20499;-78
2022/12/31 09:52:23;;;;;;;5.07;1.40;;;12.80;99.90;;;;;;4893836;29;20394;-79
2022/12/31 09:55:18;;;;;;;2.90;1.42;;;12.80;99.90;;;;;;4910362;29;20098;-79
2022/12/31 09:58:12;;;;;;;2.88;1.50;;;12.90;99.90;;;;;;4892210;29;20491;-79
2022/12/31 10:00:50;;;;;;;4.45;1.50;;;12.90;99.90;;;;;;4923984;28;20055;-81
2022/12/31 10:03:34;;;;;;;1.90;1.00;;;13.00;99.90;;;;;;4908813;29;20083;-80
2022/12/31 10:06:03;;;;;;;1.83;1.20;;;13.10;99.90;;;;;;4893901;29;20395;-76
2022/12/31 10:08:37;;;;;;;4.40;2.60;;;13.10;99.90;;;;;;4895539;29;20078;-78
2022/12/31 10:11:23;;;;;;;9.20;7.47;;;13.10;99.90;;;;;;4922616;28;20142;-78
2022/12/31 10:14:13;;;;;;;9.32;7.32;;;13.20;99.90;;;;;;4924338;28;20146;-77
2022/12/31 10:16:54;;;;;;;4.88;2.45;;;13.20;99.90;;;;;;4911012;29;20065;-76
2022/12/31 10:19:51;;;;;;;14.23;11.50;;;13.20;99.90;;;;;;4926664;28;20051;-77
2022/12/31 10:22:41;;;;;;;3.65;1.98;;;13.20;99.90;;;;;;4912642;29;20082;-76
2022/12/31 10:25:35;;;;;;;5.97;3.58;;;13.30;99.90;;;;;;4911005;29;20052;-79
2022/12/31 10:28:41;;;;;;;5.10;3.30;;;13.30;99.90;;;;;;4908900;29;20503;-76
2022/12/31 10:31:14;;;;;;;3.35;1.30;;;13.40;99.90;;;;;;4928056;28;20151;-78
2022/12/31 10:34:04;;;;;;;3.97;0.68;;;13.40;99.90;;;;;;4907773;29;20052;-76
2022/12/31 10:36:44;;;;;;;2.50;0.80;;;13.40;99.90;;;;;;4909630;29;20048;-78
2022/12/31 10:39:24;;;;;;;3.88;0.95;;;13.50;99.90;;;;;;4895599;29;20055;-77
2022/12/31 10:42:28;;;;;;;6.85;1.45;;;13.60;99.90;;;;;;4909057;29;20399;-81
2022/12/31 10:45:31;;;;;;;4.80;1.75;;;13.60;99.90;;;;;;4907538;29;20189;-81
2022/12/31 10:48:43;;;;;;;4.13;1.70;;;13.70;99.90;;;;;;4908609;29;20166;-82
2022/12/31 10:51:18;;;;;;;3.80;1.55;;;13.70;99.90;;;;;;4892061;29;20059;-82
2022/12/31 10:53:47;;;;;;;6.15;1.30;;;13.70;99.90;;;;;;4925800;28;20056;-82
2022/12/31 10:56:48;;;;;;;8.00;2.90;;;13.70;99.90;;;;;;4921980;28;20055;-81
2022/12/31 10:59:51;;;;;;;6.85;1.98;;;13.70;99.90;;;;;;4898940;28;20110;-79
2022/12/31 11:02:16;;;;;;;4.47;1.13;;;13.70;99.90;;;;;;4920332;28;20438;-78
2022/12/31 11:05:04;;;;;;;6.35;2.05;;;13.70;99.90;;;;;;4906530;29;20042;-82
2022/12/31 11:07:50;;;;;;;4.00;1.15;;;13.70;99.90;;;;;;4903058;29;20044;-83
2022/12/31 11:10:47;;;;;;;5.22;1.40;;;13.70;99.90;;;;;;4910939;29;20410;-78
2022/12/31 11:13:34;;;;;;;3.95;1.52;;;13.70;99.90;;;;;;4905389;29;20481;-77
2022/12/31 11:16:22;;;;;;;7.85;2.33;;;13.60;99.90;;;;;;4894165;29;20058;-76
2022/12/31 11:19:10;;;;;;;6.75;1.63;;;13.60;99.90;;;;;;4913371;29;20078;-78
2022/12/31 11:21:38;;;;;;;5.28;1.75;;;13.60;99.90;;;;;;4894454;29;20288;-77
2022/12/31 11:24:36;;;;;;;4.35;1.48;;;13.50;99.90;;;;;;4897600;29;20269;-78
2022/12/31 11:27:05;;;;;;;3.28;1.25;;;13.50;99.90;;;;;;4914120;29;20063;-78
2022/12/31 11:29:56;;;;;;;4.55;1.40;;;13.50;99.90;;;;;;4911293;28;20045;-75
2022/12/31 11:32:27;;;;;;;3.60;1.15;;;13.40;99.90;;;;;;4931791;28;20418;-75
2022/12/31 11:35:11;;;;;;;4.13;2.00;;;13.40;99.90;;;;;;4928499;28;20670;-74
2022/12/31 11:37:50;;;;;;;4.55;1.55;;;13.40;99.90;;;;;;4900820;28;20133;-75
2022/12/31 11:40:46;;;;;;;5.57;2.10;;;13.40;99.90;;;;;;4932593;28;20130;-74
2022/12/31 11:43:28;;;;;;;4.82;2.33;;;13.40;99.90;;;;;;4919741;28;20446;-74
2022/12/31 11:46:15;;;;;;;7.68;5.25;;;13.40;99.90;;;;;;4913397;28;20035;-78
2022/12/31 11:48:50;;;;;;;6.95;2.70;;;13.40;99.90;;;;;;4916890;29;20094;-80
2022/12/31 11:51:41;;;;;;;8.85;6.30;;;13.40;99.90;;;;;;4898785;29;20109;-78
2022/12/31 11:54:10;;;;;;;7.18;3.50;;;13.40;99.90;;;;;;4945326;28;20510;-77
2022/12/31 11:56:49;;;;;;;9.15;4.70;;;13.40;99.90;;;;;;4929264;28;20904;-77
2022/12/31 11:59:15;;;;;;;8.65;4.97;;;13.40;99.90;;;;;;4923799;28;20477;-77
2022/12/31 12:02:17;;;;;;;7.57;4.18;;;13.40;99.90;;;;;;4914958;28;20047;-78
2022/12/31 12:04:47;;;;;;;10.35;6.32;;;13.50;99.90;;;;;;4915622;29;20047;-77
2022/12/31 12:07:14;;;;;;;13.30;10.68;;;13.50;99.90;;;;;;4916867;28;20513;-79
2022/12/31 12:09:42;;;;;;;6.80;4.13;;;13.60;99.90;;;;;;4885612;29;20097;-77
2022/12/31 12:12:08;;;;;;;5.55;3.88;;;13.60;99.90;;;;;;4899404;28;20431;-76
2022/12/31 12:14:50;;;;;;;5.40;3.10;;;13.60;99.90;;;;;;4926511;28;20047;-76
2022/12/31 12:17:31;;;;;;;8.65;3.60;;;13.70;99.90;;;;;;4933478;28;20564;-77
2022/12/31 12:20:02;;;;;;;7.78;4.88;;;13.70;99.90;;;;;;4885405;29;20325;-77
2022/12/31 12:22:32;;;;;;;10.93;7.85;;;13.70;99.90;;;;;;4900927;28;20109;-78
2022/12/31 12:25:03;;;;;;;;;;;13.80;99.90;;;;;;4915931;28;20118;-78
2022/12/31 12:27:32;;;;;;;6.05;3.53;;;13.80;99.90;;;;;;4890747;28;20296;-77
2022/12/31 12:30:24;;;;;;;7.45;3.33;;;13.80;99.90;;;;;;4921661;28;20338;-78
2022/12/31 12:32:51;;;;;;;4.80;2.85;;;13.90;99.90;;;;;;4906362;28;20486;-78
2022/12/31 12:35:26;;;;;;;4.38;1.95;;;13.90;99.90;;;;;;4902904;28;20047;-78
2022/12/31 12:38:04;;;;;;;5.68;2.10;;;14.00;99.90;;;;;;4908483;28;20043;-79
2022/12/31 12:40:35;;;;;;;4.85;2.22;;;14.00;99.90;;;;;;4924359;28;20254;-75
2022/12/31 12:43:01;;;;;;;6.45;1.92;;;14.00;99.90;;;;;;4935682;28;20073;-78
2022/12/31 12:45:46;;;;;;;4.68;1.95;;;14.00;99.90;;;;;;4906307;28;20122;-77
2022/12/31 12:48:32;;;;;;;4.40;1.42;;;14.00;99.90;;;;;;4905925;28;20043;-80
2022/12/31 12:50:59;;;;;;;3.72;1.10;;;14.10;99.90;;;;;;4911317;28;20524;-76
2022/12/31 12:54:10;;;;;;;6.15;1.55;;;14.10;99.90;;;;;;4909440;29;20081;-76
2022/12/31 12:56:50;;;;;;;4.90;1.65;;;14.10;99.90;;;;;;4919810;29;20054;-78
2022/12/31 12:59:34;;;;;;;3.53;1.20;;;14.10;99.90;;;;;;4940950;28;20333;-80
2022/12/31 13:02:05;;;;;;;6.18;1.70;;;14.00;99.90;;;;;;4919046;28;20410;-78
2022/12/31 13:04:57;;;;;;;5.30;1.98;;;14.00;99.90;;;;;;4910090;29;20036;-79
2022/12/31 13:08:00;;;;;;;6.10;1.60;;;14.00;99.90;;;;;;4900712;28;20046;-77
2022/12/31 13:10:41;;;;;;;6.80;2.08;;;14.00;99.90;;;;;;4923644;28;20055;-79
2022/12/31 13:13:19;;;;;;;9.50;5.15;;;14.00;99.90;;;;;;4910966;28;20067;-81
2022/12/31 13:15:55;;;;;;;5.20;1.60;;;14.00;99.90;;;;;;4913665;29;20051;-80
2022/12/31 13:18:45;;;;;;;5.82;1.70;;;14.00;99.90;;;;;;4940631;28;20361;-78
2022/12/31 13:21:29;;;;;;;5.50;1.20;;;13.90;99.90;;;;;;4904141;28;20313;-78
2022/12/31 13:23:58;;;;;;;6.82;1.92;;;13.90;99.90;;;;;;4905247;28;20058;-78
2022/12/31 13:26:34;;;;;;;7.25;2.00;;;13.80;99.90;;;;;;4937207;28;20046;-76
2022/12/31 13:29:02;;;;;;;7.15;1.90;;;13.80;99.90;;;;;;4921244;28;20051;-74